Time;durP1;ratioP1;P1;durP2;ratioP2;P2;SDS_P1;SDS_P2;PMS_P1;PMS_P2;Temp;Humidity;BMP_temperature;BMP_pressure;BME280_temperature;BME280_humidity;BME280_pressure;Samples;Min_cycle;Max_cycle;Signal;HPM_P1;HPM_P2
2022/04/29 00:00:20;;;;;;;17.73;5.80;;;;;;;;;;4936516;29;20038;-64
2022/04/29 00:02:46;;;;;;;12.88;5.53;;;;;;;;;;4936769;29;20039;-69
2022/04/29 00:05:14;;;;;;;12.00;4.95;;;;;;;;;;4936601;29;20032;-66
2022/04/29 00:07:40;;;;;;;14.73;5.88;;;;;;;;;;4936764;29;20459;-65
2022/04/29 00:10:12;;;;;;;14.55;5.47;;;;;;;;;;4936978;29;20031;-71
2022/04/29 00:12:47;;;;;;;10.38;6.95;;;;;;;;;;4936587;29;20048;-67
2022/04/29 00:15:20;;;;;;;14.20;6.68;;;;;;;;;;4936785;29;20483;-67
2022/04/29 00:17:47;;;;;;;9.07;5.10;;;;;;;;;;4932951;29;20459;-69
2022/04/29 00:20:14;;;;;;;10.43;4.90;;;;;;;;;;4935958;29;20063;-68
2022/04/29 00:22:41;;;;;;;12.48;5.65;;;;;;;;;;4934664;29;20040;-68
2022/04/29 00:25:08;;;;;;;13.55;4.70;;;;;;;;;;4934214;29;20027;-68
2022/04/29 00:27:35;;;;;;;15.52;4.68;;;;;;;;;;4934787;29;20094;-67
2022/04/29 00:30:03;;;;;;;9.20;4.25;;;;;;;;;;4936100;29;20031;-72
2022/04/29 00:32:29;;;;;;;8.77;4.80;;;;;;;;;;4934905;28;20107;-67
2022/04/29 00:34:55;;;;;;;12.88;4.80;;;;;;;;;;4934269;29;20064;-70
2022/04/29 00:37:20;;;;;;;11.82;4.93;;;;;;;;;;4934734;29;20218;-65
2022/04/29 00:39:46;;;;;;;8.88;4.72;;;;;;;;;;4934041;29;20034;-66
2022/04/29 00:42:17;;;;;;;6.70;4.40;;;;;;;;;;4934950;29;20043;-67
2022/04/29 00:44:45;;;;;;;14.88;5.57;;;;;;;;;;4934681;29;20075;-69
2022/04/29 00:47:14;;;;;;;11.88;5.05;;;;;;;;;;4928304;29;20106;-71
2022/04/29 00:49:40;;;;;;;10.45;4.47;;;;;;;;;;4935910;29;20036;-69
2022/04/29 00:52:10;;;;;;;13.75;5.10;;;;;;;;;;4936248;29;20037;-71
2022/04/29 00:54:38;;;;;;;13.52;5.43;;;;;;;;;;4936175;29;20036;-71
2022/04/29 00:57:09;;;;;;;14.07;5.60;;;;;;;;;;4936208;29;20111;-68
2022/04/29 00:59:49;;;;;;;10.45;4.20;;;;;;;;;;4921238;29;20056;-71
2022/04/29 01:02:15;;;;;;;8.75;4.93;;;;;;;;;;4958490;28;20573;-72
2022/04/29 01:05:00;;;;;;;11.85;4.53;;;;;;;;;;4936031;29;20035;-72
2022/04/29 01:07:32;;;;;;;7.20;4.80;;;;;;;;;;4936090;29;20032;-71
2022/04/29 01:09:58;;;;;;;8.45;4.57;;;;;;;;;;4966287;28;20417;-72
2022/04/29 01:12:27;;;;;;;7.70;4.80;;;;;;;;;;4950138;28;20023;-70
2022/04/29 01:14:55;;;;;;;12.13;4.88;;;;;;;;;;4935465;29;20047;-71
2022/04/29 01:17:20;;;;;;;14.25;5.28;;;;;;;;;;4939694;29;20091;-73
2022/04/29 01:19:46;;;;;;;11.15;4.68;;;;;;;;;;4966172;28;20558;-65
2022/04/29 01:22:12;;;;;;;12.70;4.72;;;;;;;;;;4934325;29;20038;-66
2022/04/29 01:24:39;;;;;;;9.82;5.00;;;;;;;;;;4966086;28;20065;-67
2022/04/29 01:27:11;;;;;;;8.02;5.00;;;;;;;;;;4949949;28;20024;-66
2022/04/29 01:29:42;;;;;;;12.25;5.35;;;;;;;;;;4928346;29;20103;-66
2022/04/29 01:32:12;;;;;;;12.63;5.78;;;;;;;;;;4916540;29;20036;-72
2022/04/29 01:34:41;;;;;;;8.18;4.97;;;;;;;;;;4946038;28;20439;-71
2022/04/29 01:37:09;;;;;;;10.38;5.78;;;;;;;;;;4914801;29;20119;-71
2022/04/29 01:39:36;;;;;;;9.50;5.30;;;;;;;;;;4946431;28;20583;-70
2022/04/29 01:42:05;;;;;;;12.45;6.25;;;;;;;;;;4916260;29;20591;-65
2022/04/29 01:44:31;;;;;;;12.05;6.05;;;;;;;;;;4916174;29;20087;-71
2022/04/29 01:46:57;;;;;;;14.27;5.80;;;;;;;;;;4930674;29;20043;-69
2022/04/29 01:49:42;;;;;;;7.72;5.30;;;;;;;;;;4916374;29;20384;-64
2022/04/29 01:52:11;;;;;;;13.68;5.40;;;;;;;;;;4946573;29;20570;-70
2022/04/29 01:54:37;;;;;;;11.93;4.93;;;;;;;;;;4946501;29;20027;-69
2022/04/29 01:57:07;;;;;;;13.82;6.03;;;;;;;;;;4946406;28;20032;-68
2022/04/29 01:59:35;;;;;;;12.65;5.30;;;;;;;;;;4930290;29;20101;-69
2022/04/29 02:02:07;;;;;;;8.93;4.72;;;;;;;;;;4914629;29;20032;-68
2022/04/29 02:04:35;;;;;;;9.50;4.78;;;;;;;;;;4945996;28;20066;-68
2022/04/29 02:07:06;;;;;;;9.60;4.22;;;;;;;;;;4946272;28;20032;-68
2022/04/29 02:09:37;;;;;;;13.95;5.22;;;;;;;;;;4929872;29;20046;-69
2022/04/29 02:12:06;;;;;;;9.10;4.30;;;;;;;;;;4933778;29;20032;-69
2022/04/29 02:14:51;;;;;;;6.30;3.80;;;;;;;;;;4934599;29;20406;-70
2022/04/29 02:17:22;;;;;;;12.25;4.90;;;;;;;;;;4965073;28;20042;-67
2022/04/29 02:19:48;;;;;;;10.70;4.07;;;;;;;;;;4934670;28;20542;-66
2022/04/29 02:22:14;;;;;;;9.23;4.47;;;;;;;;;;4933263;29;20127;-66
2022/04/29 02:24:40;;;;;;;12.02;4.43;;;;;;;;;;4933309;29;20043;-67
2022/04/29 02:27:07;;;;;;;8.70;4.55;;;;;;;;;;4932905;29;20028;-67
2022/04/29 02:29:36;;;;;;;10.60;4.10;;;;;;;;;;4932530;29;20406;-68
2022/04/29 02:32:10;;;;;;;8.38;3.55;;;;;;;;;;4932908;29;20497;-69
2022/04/29 02:34:37;;;;;;;10.25;3.67;;;;;;;;;;4964919;28;20067;-68
2022/04/29 02:37:04;;;;;;;8.90;3.95;;;;;;;;;;4965437;28;20467;-72
2022/04/29 02:39:31;;;;;;;8.30;4.07;;;;;;;;;;4932554;29;20038;-70
2022/04/29 02:41:58;;;;;;;8.23;3.40;;;;;;;;;;4934017;29;20056;-69
2022/04/29 02:44:23;;;;;;;9.13;3.50;;;;;;;;;;4965245;28;20090;-70
2022/04/29 02:47:07;;;;;;;7.68;3.67;;;;;;;;;;4932955;29;20467;-69
2022/04/29 02:49:41;;;;;;;10.13;3.72;;;;;;;;;;4964753;28;20449;-71
2022/04/29 02:52:10;;;;;;;7.68;4.25;;;;;;;;;;4934166;29;20390;-68
2022/04/29 02:54:37;;;;;;;6.60;4.75;;;;;;;;;;4932795;29;20032;-66
2022/04/29 02:57:07;;;;;;;7.80;4.70;;;;;;;;;;4965075;28;20402;-70
2022/04/29 02:59:36;;;;;;;10.02;4.50;;;;;;;;;;4964605;28;20102;-69
2022/04/29 03:02:03;;;;;;;8.25;4.10;;;;;;;;;;4965003;28;20047;-71
2022/04/29 03:04:29;;;;;;;11.50;4.43;;;;;;;;;;4965303;28;20051;-71
2022/04/29 03:06:56;;;;;;;8.45;4.50;;;;;;;;;;4934101;29;20035;-70
2022/04/29 03:09:23;;;;;;;12.52;5.32;;;;;;;;;;4943071;29;20035;-68
2022/04/29 03:11:49;;;;;;;18.73;5.60;;;;;;;;;;4937032;28;20110;-68
2022/04/29 03:14:16;;;;;;;8.35;4.93;;;;;;;;;;4937945;29;20036;-66
2022/04/29 03:16:43;;;;;;;9.05;5.43;;;;;;;;;;4920682;29;20111;-68
2022/04/29 03:19:09;;;;;;;12.73;5.45;;;;;;;;;;4952545;28;20048;-68
2022/04/29 03:21:36;;;;;;;9.32;5.20;;;;;;;;;;4968685;28;20032;-68
2022/04/29 03:24:03;;;;;;;8.02;4.90;;;;;;;;;;4968138;28;20483;-68
2022/04/29 03:26:31;;;;;;;11.82;4.53;;;;;;;;;;4935382;29;20031;-67
2022/04/29 03:28:58;;;;;;;13.20;4.38;;;;;;;;;;4951624;28;20043;-67
2022/04/29 03:31:24;;;;;;;12.23;4.60;;;;;;;;;;4967921;28;20023;-67
2022/04/29 03:34:17;;;;;;;13.57;5.03;;;;;;;;;;4943344;29;20055;-67
2022/04/29 03:36:44;;;;;;;11.55;4.47;;;;;;;;;;4967871;28;20040;-67
2022/04/29 03:39:10;;;;;;;13.32;5.25;;;;;;;;;;4935861;29;20127;-68
2022/04/29 03:41:36;;;;;;;8.50;4.57;;;;;;;;;;4937145;29;20134;-68
2022/04/29 03:44:04;;;;;;;6.97;4.97;;;;;;;;;;4937195;29;20055;-70
2022/04/29 03:46:37;;;;;;;10.13;5.00;;;;;;;;;;4967954;28;20557;-68
2022/04/29 03:52:01;;;;;;;14.32;4.68;;;;;;;;;;4967324;28;20506;-66
2022/04/29 03:54:28;;;;;;;15.88;4.78;;;;;;;;;;4967593;28;20043;-68
2022/04/29 03:56:59;;;;;;;15.73;5.32;;;;;;;;;;4936091;28;20028;-68
2022/04/29 03:59:26;;;;;;;17.90;5.30;;;;;;;;;;4967119;28;20107;-67
2022/04/29 04:01:53;;;;;;;7.28;4.25;;;;;;;;;;4950903;28;20036;-67
2022/04/29 04:04:19;;;;;;;14.10;5.00;;;;;;;;;;4967050;28;20031;-68
2022/04/29 04:06:52;;;;;;;12.45;5.30;;;;;;;;;;4967092;28;20055;-71
2022/04/29 04:09:24;;;;;;;11.68;4.50;;;;;;;;;;4934820;29;20027;-69
2022/04/29 04:11:53;;;;;;;10.25;4.68;;;;;;;;;;4966955;28;20102;-68
2022/04/29 04:14:52;;;;;;;13.75;4.95;;;;;;;;;;4942309;29;20119;-66
2022/04/29 04:17:18;;;;;;;8.60;4.55;;;;;;;;;;4967081;28;20067;-70
2022/04/29 04:19:44;;;;;;;13.63;5.28;;;;;;;;;;4951033;28;20050;-68
2022/04/29 04:22:10;;;;;;;15.45;4.80;;;;;;;;;;4967328;28;20040;-66
2022/04/29 04:24:36;;;;;;;11.45;4.45;;;;;;;;;;4950888;28;20086;-67
2022/04/29 04:27:02;;;;;;;26.77;6.32;;;;;;;;;;4936269;29;20036;-69
2022/04/29 04:29:28;;;;;;;18.63;5.53;;;;;;;;;;4936220;29;20490;-68
2022/04/29 04:31:54;;;;;;;14.50;5.57;;;;;;;;;;4966793;28;20032;-73
2022/04/29 04:37:07;;;;;;;23.02;6.28;;;;;;;;;;4934337;29;20032;-70
2022/04/29 04:39:33;;;;;;;20.15;5.65;;;;;;;;;;4947983;28;20114;-68
2022/04/29 04:42:05;;;;;;;17.88;5.57;;;;;;;;;;4948663;28;20040;-70
2022/04/29 04:44:46;;;;;;;16.65;5.25;;;;;;;;;;4965896;28;20039;-74
2022/04/29 04:47:13;;;;;;;11.85;4.80;;;;;;;;;;4967231;28;20142;-75
2022/04/29 04:49:59;;;;;;;11.30;4.60;;;;;;;;;;4925596;29;20039;-75
2022/04/29 04:52:27;;;;;;;15.63;5.47;;;;;;;;;;4936036;29;20328;-77
2022/04/29 04:54:54;;;;;;;12.57;4.80;;;;;;;;;;4930180;29;20043;-79
2022/04/29 04:57:22;;;;;;;8.13;4.22;;;;;;;;;;4965188;28;20040;-76
2022/04/29 04:59:48;;;;;;;10.68;4.93;;;;;;;;;;4932914;29;20103;-74
2022/04/29 05:02:14;;;;;;;8.40;4.70;;;;;;;;;;4937837;29;20036;-72
2022/04/29 05:05:13;;;;;;;21.75;6.30;;;;;;;;;;4948979;28;20070;-74
2022/04/29 05:07:45;;;;;;;14.55;4.97;;;;;;;;;;4965444;28;20039;-74
2022/04/29 05:10:13;;;;;;;13.77;4.50;;;;;;;;;;4932402;29;20039;-76
2022/04/29 05:12:45;;;;;;;11.15;5.43;;;;;;;;;;4929772;29;20059;-72
2022/04/29 05:15:20;;;;;;;11.57;4.57;;;;;;;;;;4922839;29;20056;-74
2022/04/29 05:17:46;;;;;;;9.00;4.40;;;;;;;;;;4963610;28;20032;-74
2022/04/29 05:20:18;;;;;;;7.75;4.43;;;;;;;;;;4934106;29;20036;-75
2022/04/29 05:22:47;;;;;;;9.20;4.43;;;;;;;;;;4932810;29;20036;-74
2022/04/29 05:25:13;;;;;;;13.13;5.10;;;;;;;;;;4965155;28;20495;-75
2022/04/29 05:27:51;;;;;;;10.75;4.47;;;;;;;;;;4934890;29;20088;-75
2022/04/29 05:30:38;;;;;;;12.63;4.90;;;;;;;;;;4942640;28;20042;-76
2022/04/29 05:33:22;;;;;;;7.47;4.22;;;;;;;;;;4935559;29;20044;-73
2022/04/29 05:36:09;;;;;;;9.77;4.72;;;;;;;;;;4934450;29;20526;-73
2022/04/29 05:42:17;;;;;;;11.18;4.20;;;;;;;;;;4933788;29;20035;-75
2022/04/29 05:44:43;;;;;;;12.55;5.45;;;;;;;;;;4931626;29;20043;-71
2022/04/29 05:47:12;;;;;;;10.50;4.45;;;;;;;;;;4966532;28;20460;-74
2022/04/29 05:49:38;;;;;;;15.52;5.15;;;;;;;;;;4965287;28;20028;-75
2022/04/29 05:52:06;;;;;;;13.93;5.47;;;;;;;;;;4933301;29;20023;-73
2022/04/29 05:54:36;;;;;;;16.25;5.35;;;;;;;;;;4949782;29;20048;-72
2022/04/29 05:57:03;;;;;;;15.82;5.30;;;;;;;;;;4966009;28;20055;-72
2022/04/29 05:59:30;;;;;;;13.63;5.18;;;;;;;;;;4880172;29;1613980;-72
2022/04/29 06:02:24;;;;;;;12.25;5.63;;;;;;;;;;4936275;28;20447;-72
2022/04/29 06:05:10;;;;;;;11.27;4.88;;;;;;;;;;4935390;28;20387;-72
2022/04/29 06:07:38;;;;;;;16.05;5.57;;;;;;;;;;4966495;28;20040;-74
2022/04/29 06:10:05;;;;;;;9.70;4.70;;;;;;;;;;4933991;29;20027;-76
2022/04/29 06:12:40;;;;;;;13.48;5.07;;;;;;;;;;4966299;28;20046;-72
2022/04/29 06:15:16;;;;;;;8.40;4.43;;;;;;;;;;4966050;28;20492;-74
2022/04/29 06:18:01;;;;;;;7.70;4.30;;;;;;;;;;4935741;29;20120;-75
2022/04/29 06:20:54;;;;;;;9.55;4.70;;;;;;;;;;4936182;28;20447;-75
2022/04/29 06:23:38;;;;;;;10.45;4.05;;;;;;;;;;4966128;28;20066;-72
2022/04/29 06:26:05;;;;;;;9.10;4.60;;;;;;;;;;4965913;28;20034;-74
2022/04/29 06:28:34;;;;;;;7.97;4.15;;;;;;;;;;4950191;28;20038;-72
2022/04/29 06:31:01;;;;;;;13.20;4.18;;;;;;;;;;4966337;28;20044;-75
2022/04/29 06:33:42;;;;;;;9.88;4.45;;;;;;;;;;4932245;29;20090;-77
2022/04/29 06:36:12;;;;;;;8.02;4.28;;;;;;;;;;4957674;28;20048;-75
2022/04/29 06:38:40;;;;;;;12.88;4.30;;;;;;;;;;4965851;28;20032;-75
2022/04/29 06:41:25;;;;;;;14.10;5.00;;;;;;;;;;4933856;29;20050;-77
2022/04/29 06:44:04;;;;;;;13.45;5.60;;;;;;;;;;4961993;28;20479;-76
2022/04/29 06:46:50;;;;;;;11.77;4.55;;;;;;;;;;4935417;29;20054;-75
2022/04/29 06:49:34;;;;;;;9.45;4.47;;;;;;;;;;4935337;29;20047;-77
2022/04/29 06:52:19;;;;;;;8.40;3.83;;;;;;;;;;4935273;29;20511;-76
2022/04/29 06:55:12;;;;;;;12.27;3.97;;;;;;;;;;4936419;28;20406;-74
2022/04/29 06:57:38;;;;;;;10.27;3.97;;;;;;;;;;4965682;28;20399;-75
2022/04/29 07:00:05;;;;;;;9.27;3.53;;;;;;;;;;4949560;28;20036;-74
2022/04/29 07:02:33;;;;;;;5.60;3.30;;;;;;;;;;4933418;29;20028;-71
2022/04/29 07:04:59;;;;;;;10.95;3.35;;;;;;;;;;4933502;29;20032;-75
2022/04/29 07:07:28;;;;;;;6.95;3.40;;;;;;;;;;4934101;29;20047;-73
2022/04/29 07:10:05;;;;;;;6.22;3.45;;;;;;;;;;4933082;29;20038;-73
2022/04/29 07:12:49;;;;;;;5.82;3.28;;;;;;;;;;4934815;29;20058;-72
2022/04/29 07:15:16;;;;;;;7.68;3.50;;;;;;;;;;4965107;28;20044;-73
2022/04/29 07:17:44;;;;;;;8.43;3.50;;;;;;;;;;4965432;28;20111;-76
2022/04/29 07:20:12;;;;;;;10.77;4.47;;;;;;;;;;4965249;28;20032;-74
2022/04/29 07:22:39;;;;;;;9.25;3.63;;;;;;;;;;4934594;29;20038;-76
2022/04/29 07:25:07;;;;;;;6.35;3.25;;;;;;;;;;4932976;29;20132;-75
2022/04/29 07:27:33;;;;;;;10.25;3.55;;;;;;;;;;4965005;28;20618;-76
2022/04/29 07:30:00;;;;;;;9.25;3.47;;;;;;;;;;4965281;28;20032;-75
2022/04/29 07:32:36;;;;;;;4.82;3.05;;;;;;;;;;4965239;28;20032;-77
2022/04/29 07:44:03;;;;;;;7.57;3.33;;;;;;;;;;4934378;29;20359;-77
2022/04/29 07:46:36;;;;;;;8.57;3.30;;;;;;;;;;4934310;28;20028;-76
2022/04/29 07:49:21;;;;;;;13.30;3.60;;;;;;;;;;4934636;29;20376;-77
2022/04/29 07:51:47;;;;;;;12.48;4.63;;;;;;;;;;4948894;28;20467;-76
2022/04/29 07:54:13;;;;;;;7.82;3.15;;;;;;;;;;4935775;28;20466;-77
2022/04/29 07:56:41;;;;;;;5.78;3.17;;;;;;;;;;4936968;29;20031;-76
2022/04/29 07:59:09;;;;;;;9.07;3.35;;;;;;;;;;4966841;28;20486;-75
2022/04/29 08:01:36;;;;;;;10.63;3.53;;;;;;;;;;4967170;28;20047;-76
2022/04/29 08:04:02;;;;;;;8.25;3.50;;;;;;;;;;4966209;28;20031;-74
2022/04/29 08:06:29;;;;;;;7.95;3.35;;;;;;;;;;4967201;28;20110;-85
2022/04/29 08:08:55;;;;;;;5.55;3.35;;;;;;;;;;4935597;29;20080;-75
2022/04/29 08:11:21;;;;;;;8.63;3.47;;;;;;;;;;4931062;29;20028;-78
2022/04/29 08:14:10;;;;;;;7.95;3.63;;;;;;;;;;4914198;29;20043;-79
2022/04/29 08:16:57;;;;;;;13.88;3.88;;;;;;;;;;4933232;29;20043;-82
2022/04/29 08:19:33;;;;;;;11.55;3.63;;;;;;;;;;4951899;28;20061;-76
2022/04/29 08:22:07;;;;;;;7.07;3.40;;;;;;;;;;4933944;29;20222;-79
2022/04/29 08:24:33;;;;;;;10.60;3.63;;;;;;;;;;4933028;29;20437;-78
2022/04/29 08:26:59;;;;;;;9.85;4.05;;;;;;;;;;4935408;29;20030;-74
2022/04/29 08:29:25;;;;;;;6.03;3.70;;;;;;;;;;4935030;29;20397;-77
2022/04/29 08:31:52;;;;;;;4.22;3.28;;;;;;;;;;4961520;28;20550;-75
2022/04/29 08:34:17;;;;;;;10.57;4.50;;;;;;;;;;4950217;28;20038;-77
2022/04/29 08:36:44;;;;;;;11.13;4.28;;;;;;;;;;4936237;28;20115;-73
2022/04/29 08:39:10;;;;;;;8.77;3.40;;;;;;;;;;4934396;29;20046;-75
2022/04/29 08:41:40;;;;;;;13.63;3.60;;;;;;;;;;4965781;28;20498;-75
2022/04/29 08:44:10;;;;;;;8.38;3.83;;;;;;;;;;4936019;28;20040;-74
2022/04/29 08:46:50;;;;;;;10.57;3.90;;;;;;;;;;4966163;28;20042;-72
2022/04/29 08:49:40;;;;;;;6.43;3.53;;;;;;;;;;4966378;28;20180;-72
2022/04/29 08:52:08;;;;;;;4.93;3.70;;;;;;;;;;4935700;29;20115;-78
2022/04/29 09:00:06;;;;;;;8.18;3.50;;;;;;;;;;4935910;29;20479;-76
2022/04/29 09:02:39;;;;;;;8.90;4.25;;;;;;;;;;4935610;29;20614;-74
2022/04/29 09:05:10;;;;;;;9.70;3.47;;;;;;;;;;4935010;29;20526;-76
2022/04/29 09:08:00;;;;;;;7.65;3.75;;;;;;;;;;4935271;29;20032;-75
2022/04/29 09:10:35;;;;;;;10.65;4.13;;;;;;;;;;4930677;29;20028;-74
2022/04/29 09:13:14;;;;;;;7.15;3.30;;;;;;;;;;4934989;29;20031;-74
2022/04/29 09:15:49;;;;;;;10.77;3.58;;;;;;;;;;4935578;28;20436;-76
2022/04/29 09:18:42;;;;;;;10.00;4.10;;;;;;;;;;4934810;29;20119;-75
2022/04/29 09:21:13;;;;;;;14.90;4.80;;;;;;;;;;4935057;29;20155;-76
2022/04/29 09:23:47;;;;;;;9.93;4.13;;;;;;;;;;4935024;29;20035;-76
2022/04/29 09:26:38;;;;;;;17.08;4.20;;;;;;;;;;4933630;29;20055;-75
2022/04/29 09:29:23;;;;;;;7.07;3.70;;;;;;;;;;4935133;29;20043;-73
2022/04/29 09:32:12;;;;;;;10.13;4.82;;;;;;;;;;4941281;29;20074;-73
2022/04/29 09:34:54;;;;;;;7.28;3.47;;;;;;;;;;4934621;29;20060;-76
2022/04/29 09:37:22;;;;;;;10.18;3.95;;;;;;;;;;4934668;29;20068;-75
2022/04/29 09:40:05;;;;;;;8.45;4.50;;;;;;;;;;4934607;29;20083;-75
2022/04/29 09:42:39;;;;;;;7.88;4.10;;;;;;;;;;4934140;29;20035;-75
2022/04/29 09:45:13;;;;;;;7.97;4.03;;;;;;;;;;4965509;28;20047;-76
2022/04/29 09:47:39;;;;;;;8.38;3.97;;;;;;;;;;4965462;28;20106;-79
2022/04/29 09:50:05;;;;;;;8.07;3.70;;;;;;;;;;4934887;29;20116;-76
2022/04/29 09:52:37;;;;;;;8.43;4.20;;;;;;;;;;4934357;29;20027;-77
2022/04/29 09:55:17;;;;;;;10.73;4.35;;;;;;;;;;4933768;29;20043;-77
2022/04/29 09:57:48;;;;;;;8.77;4.32;;;;;;;;;;4930929;29;20123;-80
2022/04/29 10:00:15;;;;;;;9.60;4.07;;;;;;;;;;4942004;28;20046;-82
2022/04/29 10:02:41;;;;;;;5.78;3.35;;;;;;;;;;4934373;29;20040;-82
2022/04/29 10:05:08;;;;;;;7.40;4.30;;;;;;;;;;4964628;28;20134;-78
2022/04/29 10:07:40;;;;;;;9.00;4.22;;;;;;;;;;4932981;29;20027;-79
2022/04/29 10:10:09;;;;;;;15.35;4.72;;;;;;;;;;4933226;29;20032;-79
2022/04/29 10:12:35;;;;;;;12.57;4.25;;;;;;;;;;4934232;29;20027;-75
2022/04/29 10:15:20;;;;;;;12.85;4.57;;;;;;;;;;4933812;29;20441;-76
2022/04/29 10:21:17;;;;;;;10.05;5.50;;;;;;;;;;4934882;29;20082;-74
2022/04/29 10:23:51;;;;;;;5.13;3.95;;;;;;;;;;4934223;28;20155;-75
2022/04/29 10:26:21;;;;;;;17.00;4.57;;;;;;;;;;4938952;29;20032;-78
2022/04/29 10:28:52;;;;;;;10.68;4.43;;;;;;;;;;4933303;29;20031;-75
2022/04/29 10:31:20;;;;;;;14.18;4.28;;;;;;;;;;4933810;29;20046;-78
2022/04/29 10:33:47;;;;;;;7.22;3.83;;;;;;;;;;4934330;29;20028;-75
2022/04/29 10:36:15;;;;;;;14.00;4.22;;;;;;;;;;4963432;28;20483;-77
2022/04/29 10:38:48;;;;;;;9.40;4.30;;;;;;;;;;4933339;28;20054;-77
2022/04/29 10:41:18;;;;;;;11.43;4.50;;;;;;;;;;4912567;29;20507;-79
2022/04/29 10:43:56;;;;;;;8.23;4.50;;;;;;;;;;4931735;29;20039;-77
2022/04/29 10:46:41;;;;;;;10.90;5.28;;;;;;;;;;4934207;29;20043;-77
2022/04/29 10:49:19;;;;;;;8.60;4.07;;;;;;;;;;4933909;29;20044;-77
2022/04/29 10:52:03;;;;;;;11.90;3.80;;;;;;;;;;4930824;28;20612;-79
2022/04/29 10:54:56;;;;;;;7.80;3.95;;;;;;;;;;4931876;29;20171;-75
2022/04/29 10:57:41;;;;;;;5.70;3.70;;;;;;;;;;4932733;29;20474;-78
2022/04/29 11:00:11;;;;;;;11.30;4.00;;;;;;;;;;4964452;28;20047;-76
2022/04/29 11:02:39;;;;;;;8.68;5.30;;;;;;;;;;4934097;29;20036;-75
2022/04/29 11:05:08;;;;;;;11.07;3.90;;;;;;;;;;4933701;29;20459;-72
2022/04/29 11:07:38;;;;;;;35.22;23.10;;;;;;;;;;4948107;28;20028;-73
2022/04/29 11:10:17;;;;;;;13.07;8.10;;;;;;;;;;4934105;29;20044;-72
2022/04/29 11:13:08;;;;;;;11.63;5.18;;;;;;;;;;4948188;28;20090;-76
2022/04/29 11:16:16;;;;;;;9.43;4.80;;;;;;;;;;4933692;29;20406;-75
2022/04/29 11:19:17;;;;;;;19.83;8.45;;;;;;;;;;4928608;29;20290;-74
2022/04/29 11:24:42;;;;;;;8.05;3.72;;;;;;;;;;4932320;29;20370;-75
2022/04/29 11:27:10;;;;;;;5.47;3.50;;;;;;;;;;4965257;28;20070;-80
2022/04/29 11:29:43;;;;;;;9.00;4.20;;;;;;;;;;4935134;29;20023;-76
2022/04/29 11:32:28;;;;;;;7.88;2.75;;;;;;;;;;4939056;29;20078;-79
2022/04/29 11:34:56;;;;;;;5.68;2.92;;;;;;;;;;4938574;29;20050;-77
2022/04/29 11:37:26;;;;;;;4.88;2.92;;;;;;;;;;4938611;29;20035;-77
2022/04/29 11:39:57;;;;;;;9.48;3.60;;;;;;;;;;4937961;28;20053;-76
2022/04/29 11:42:23;;;;;;;5.93;3.08;;;;;;;;;;4968365;28;20028;-72
2022/04/29 11:44:49;;;;;;;9.65;3.15;;;;;;;;;;4937648;29;20028;-72
2022/04/29 11:47:17;;;;;;;7.57;3.13;;;;;;;;;;4937982;29;20040;-74
2022/04/29 11:49:43;;;;;;;4.28;2.88;;;;;;;;;;4938189;29;20102;-77
2022/04/29 11:52:23;;;;;;;4.90;2.78;;;;;;;;;;4937910;29;20044;-74
2022/04/29 11:55:02;;;;;;;42.05;23.63;;;;;;;;;;4937662;28;20051;-77
2022/04/29 11:57:42;;;;;;;6.90;4.38;;;;;;;;;;4937865;29;20036;-74
2022/04/29 12:00:09;;;;;;;13.02;3.90;;;;;;;;;;4968423;28;20071;-76
2022/04/29 12:02:45;;;;;;;;;;;;;;;;;;4937773;29;20074;-73
2022/04/29 12:05:13;;;;;;;6.15;3.05;;;;;;;;;;4935995;29;19918;-75
2022/04/29 12:07:41;;;;;;;5.18;3.33;;;;;;;;;;4937390;29;20039;-74
2022/04/29 12:10:26;;;;;;;7.18;4.43;;;;;;;;;;4951597;29;20059;-72
2022/04/29 12:12:57;;;;;;;10.60;3.77;;;;;;;;;;4937464;29;20035;-77
2022/04/29 12:15:30;;;;;;;8.05;3.75;;;;;;;;;;4937005;29;20043;-76
2022/04/29 12:17:59;;;;;;;22.15;13.40;;;;;;;;;;4937077;29;20119;-73
2022/04/29 12:20:25;;;;;;;6.78;4.05;;;;;;;;;;4937647;29;20042;-73
2022/04/29 12:22:52;;;;;;;10.13;4.07;;;;;;;;;;4937020;29;20616;-76
2022/04/29 12:25:28;;;;;;;19.90;12.88;;;;;;;;;;4937157;29;20094;-77
2022/04/29 12:28:43;;;;;;;11.40;4.80;;;;;;;;;;4937189;29;20526;-76
2022/04/29 12:37:00;;;;;;;7.28;3.28;;;;;;;;;;4919182;29;20043;-77
2022/04/29 12:39:47;;;;;;;8.70;5.05;;;;;;;;;;4967946;28;20039;-78
2022/04/29 12:42:18;;;;;;;9.25;5.40;;;;;;;;;;4937047;29;20044;-77
2022/04/29 12:47:50;;;;;;;11.50;3.58;;;;;;;;;;4935363;29;20399;-73
2022/04/29 12:50:33;;;;;;;12.23;4.97;;;;;;;;;;4935466;29;20070;-72
2022/04/29 12:53:13;;;;;;;8.30;4.25;;;;;;;;;;4936685;29;20036;-72
2022/04/29 12:55:42;;;;;;;8.73;4.38;;;;;;;;;;4936545;29;20104;-73
2022/04/29 12:58:11;;;;;;;6.70;3.33;;;;;;;;;;4936681;29;20052;-74
2022/04/29 13:00:39;;;;;;;7.10;2.95;;;;;;;;;;4936819;29;20067;-78
2022/04/29 13:03:10;;;;;;;5.70;3.30;;;;;;;;;;4936743;29;20035;-72
2022/04/29 13:05:41;;;;;;;5.57;3.03;;;;;;;;;;4952147;28;20036;-78
2022/04/29 13:08:09;;;;;;;7.53;3.28;;;;;;;;;;4936550;29;20062;-77
2022/04/29 13:10:45;;;;;;;6.60;3.78;;;;;;;;;;4935987;29;20024;-76
2022/04/29 13:13:13;;;;;;;6.30;3.42;;;;;;;;;;4936228;29;20059;-75
2022/04/29 13:15:43;;;;;;;9.65;3.58;;;;;;;;;;4936111;29;20042;-77
2022/04/29 13:18:10;;;;;;;6.07;3.67;;;;;;;;;;4966791;28;20495;-73
2022/04/29 13:20:37;;;;;;;8.57;3.50;;;;;;;;;;4936320;29;20062;-73
2022/04/29 13:23:03;;;;;;;7.90;4.30;;;;;;;;;;4967436;28;20036;-76
2022/04/29 13:25:35;;;;;;;9.85;4.85;;;;;;;;;;4934753;29;20574;-76
2022/04/29 13:28:01;;;;;;;6.47;4.75;;;;;;;;;;4936042;29;20039;-76
2022/04/29 13:30:27;;;;;;;14.02;8.20;;;;;;;;;;4935959;29;20035;-74
2022/04/29 13:32:53;;;;;;;6.05;3.47;;;;;;;;;;4935988;29;20043;-74
2022/04/29 13:35:19;;;;;;;6.93;3.35;;;;;;;;;;4935946;29;20039;-78
2022/04/29 13:37:45;;;;;;;8.27;3.58;;;;;;;;;;4935909;29;20122;-74
2022/04/29 13:40:11;;;;;;;10.70;3.42;;;;;;;;;;4936170;29;20072;-73
2022/04/29 13:42:37;;;;;;;6.72;3.28;;;;;;;;;;4936079;29;20475;-78
2022/04/29 13:45:11;;;;;;;6.20;3.20;;;;;;;;;;4950333;28;20390;-76
2022/04/29 13:47:37;;;;;;;5.40;3.22;;;;;;;;;;4935929;29;20118;-77
2022/04/29 13:50:05;;;;;;;9.15;3.90;;;;;;;;;;4936091;29;20027;-75
2022/04/29 13:55:16;;;;;;;6.68;2.83;;;;;;;;;;4936189;29;20558;-78
2022/04/29 13:57:43;;;;;;;12.48;4.57;;;;;;;;;;4936096;29;20055;-80
2022/04/29 14:00:10;;;;;;;7.40;3.50;;;;;;;;;;4935593;29;20031;-75
2022/04/29 14:02:40;;;;;;;6.68;3.42;;;;;;;;;;4935432;29;20107;-75
2022/04/29 14:05:07;;;;;;;7.88;3.30;;;;;;;;;;4935380;29;20048;-74
2022/04/29 14:07:35;;;;;;;14.75;4.43;;;;;;;;;;4936142;29;20031;-75
2022/04/29 14:10:01;;;;;;;7.43;3.88;;;;;;;;;;4935423;29;20464;-74
2022/04/29 14:12:28;;;;;;;8.98;3.38;;;;;;;;;;4935742;28;20526;-72
2022/04/29 14:14:58;;;;;;;7.72;4.22;;;;;;;;;;4932277;29;20316;-74
2022/04/29 14:17:23;;;;;;;5.68;3.15;;;;;;;;;;4931490;29;20032;-73
2022/04/29 14:19:50;;;;;;;7.57;2.90;;;;;;;;;;4936015;29;20452;-74
2022/04/29 14:22:15;;;;;;;4.07;2.65;;;;;;;;;;4935156;29;20116;-78
2022/04/29 14:24:42;;;;;;;5.25;2.90;;;;;;;;;;4934917;29;20118;-76
2022/04/29 14:27:08;;;;;;;9.25;3.30;;;;;;;;;;4934949;29;20075;-72
2022/04/29 14:29:37;;;;;;;4.82;3.08;;;;;;;;;;4965856;28;20395;-78
2022/04/29 14:32:04;;;;;;;5.20;3.20;;;;;;;;;;4935438;29;20024;-75
2022/04/29 14:34:32;;;;;;;10.73;3.60;;;;;;;;;;4934757;29;20036;-74
2022/04/29 14:36:59;;;;;;;10.95;3.78;;;;;;;;;;4949540;29;20079;-77
2022/04/29 14:39:26;;;;;;;10.07;3.50;;;;;;;;;;4934998;29;20245;-74
2022/04/29 14:41:52;;;;;;;6.38;3.20;;;;;;;;;;4935426;29;20028;-74
2022/04/29 14:44:19;;;;;;;8.43;3.50;;;;;;;;;;4935209;29;20050;-73
2022/04/29 14:46:47;;;;;;;7.63;3.33;;;;;;;;;;4935292;29;20028;-74
2022/04/29 14:49:13;;;;;;;8.45;3.42;;;;;;;;;;4934765;29;20036;-72
2022/04/29 14:51:39;;;;;;;7.97;3.08;;;;;;;;;;4934923;29;20035;-75
2022/04/29 14:54:07;;;;;;;8.13;3.50;;;;;;;;;;4934734;29;20513;-73
2022/04/29 14:56:43;;;;;;;7.65;3.83;;;;;;;;;;4934738;29;20038;-72
2022/04/29 14:59:13;;;;;;;6.95;3.40;;;;;;;;;;4934703;29;20043;-73
2022/04/29 15:01:41;;;;;;;8.80;4.03;;;;;;;;;;4934534;29;20036;-74
2022/04/29 15:04:10;;;;;;;10.02;3.40;;;;;;;;;;4936052;29;20486;-73
2022/04/29 15:06:37;;;;;;;9.40;2.88;;;;;;;;;;4938533;29;20059;-73
2022/04/29 15:17:24;;;;;;;9.90;3.80;;;;;;;;;;4936990;29;20122;-73
2022/04/29 15:19:51;;;;;;;7.53;3.72;;;;;;;;;;4937122;29;20098;-73
2022/04/29 15:22:22;;;;;;;8.38;3.33;;;;;;;;;;4937073;29;20031;-75
2022/04/29 15:24:48;;;;;;;8.93;3.78;;;;;;;;;;4937151;29;20035;-73
2022/04/29 15:27:15;;;;;;;11.48;4.55;;;;;;;;;;4936653;29;20542;-75
2022/04/29 15:29:41;;;;;;;14.20;4.53;;;;;;;;;;4936272;29;20036;-74
2022/04/29 15:32:07;;;;;;;9.48;3.58;;;;;;;;;;4936024;29;20043;-74
2022/04/29 15:34:33;;;;;;;5.40;3.30;;;;;;;;;;4937538;29;20466;-72
2022/04/29 15:37:00;;;;;;;7.35;3.65;;;;;;;;;;4937748;29;20125;-72
2022/04/29 15:39:27;;;;;;;7.40;3.60;;;;;;;;;;4937928;29;20035;-71
2022/04/29 15:41:53;;;;;;;14.43;3.75;;;;;;;;;;4938306;29;20387;-72
2022/04/29 15:44:19;;;;;;;18.85;4.57;;;;;;;;;;4937695;29;20079;-72
2022/04/29 15:46:45;;;;;;;6.35;3.53;;;;;;;;;;4937661;29;20032;-72
2022/04/29 15:49:11;;;;;;;6.07;3.40;;;;;;;;;;4937929;29;20525;-73